Time;durP1;ratioP1;P1;durP2;ratioP2;P2;SDS_P1;SDS_P2;PMS_P1;PMS_P2;Temp;Humidity;BMP_temperature;BMP_pressure;BME280_temperature;BME280_humidity;BME280_pressure;Samples;Min_cycle;Max_cycle;Signal;HPM_P1;HPM_P2
2022/11/15 00:00:28;;;;;;;0.10;0.10;;;7.70;99.90;6.60;96927.00;;;;5050235;28;20574;-73
2022/11/15 00:03:15;;;;;;;0.05;0.05;;;7.70;99.90;6.60;97109.00;;;;5051818;28;20205;-73
2022/11/15 00:06:04;;;;;;;0.10;0.10;;;7.70;99.90;6.60;97105.00;;;;5047361;28;20209;-73
2022/11/15 00:08:50;;;;;;;0.10;0.10;;;7.70;99.90;6.50;97106.00;;;;5048127;28;20321;-73
2022/11/15 00:11:37;;;;;;;0.10;0.10;;;7.70;99.90;6.60;97097.00;;;;5051220;28;20232;-73
2022/11/15 00:14:24;;;;;;;0.10;0.10;;;7.70;99.90;6.50;97093.00;;;;5046349;28;20202;-73
2022/11/15 00:17:12;;;;;;;0.10;0.10;;;7.70;99.90;6.60;97091.00;;;;5051669;28;20324;-72
2022/11/15 00:19:58;;;;;;;0.10;0.10;;;7.70;99.90;6.60;97098.00;;;;5042843;28;20295;-73
2022/11/15 00:22:45;;;;;;;0.10;0.10;;;7.70;99.90;6.60;97095.00;;;;5044797;28;20248;-72
2022/11/15 00:25:32;;;;;;;0.10;0.10;;;7.70;99.90;6.60;97061.00;;;;5050780;28;20221;-72
2022/11/15 00:28:19;;;;;;;0.03;0.03;;;7.70;99.90;6.60;97089.00;;;;5051062;28;20201;-73
2022/11/15 00:31:09;;;;;;;0.10;0.10;;;7.70;99.90;6.60;97109.00;;;;5050501;28;20595;-73
2022/11/15 00:33:57;;;;;;;0.00;0.00;;;7.70;99.90;6.50;97096.00;;;;5038350;28;20214;-73
2022/11/15 00:36:44;;;;;;;0.10;0.10;;;7.70;99.90;6.50;97093.00;;;;5044381;28;20808;-72
2022/11/15 00:39:31;;;;;;;0.08;0.08;;;7.70;99.90;6.60;97083.00;;;;5052725;28;20209;-72
2022/11/15 00:42:22;;;;;;;0.10;0.10;;;7.70;99.90;6.60;96892.00;;;;5051219;28;20632;-72
2022/11/15 00:45:10;;;;;;;0.03;0.03;;;7.70;99.90;6.60;96953.00;;;;5050502;28;20236;-72
2022/11/15 00:47:57;;;;;;;0.10;0.10;;;7.70;99.90;6.60;96954.00;;;;5047470;28;20562;-72
2022/11/15 00:50:45;;;;;;;0.10;0.10;;;7.60;99.90;6.50;97081.00;;;;5046940;28;20593;-73
2022/11/15 00:53:32;;;;;;;0.10;0.10;;;7.60;99.90;6.50;97062.00;;;;5047508;28;20573;-72
2022/11/15 00:56:19;;;;;;;0.10;0.10;;;7.60;99.90;6.50;97068.00;;;;5048672;28;20688;-72
2022/11/15 00:59:06;;;;;;;0.10;0.10;;;7.60;99.90;6.40;97062.00;;;;5050974;28;20209;-73
2022/11/15 01:01:53;;;;;;;0.10;0.10;;;7.60;99.90;6.40;97061.00;;;;5074007;22;20252;-75
2022/11/15 01:04:40;;;;;;;0.10;0.10;;;7.50;99.90;6.40;97063.00;;;;5049545;28;20686;-74
2022/11/15 01:07:28;;;;;;;0.10;0.10;;;7.50;99.90;6.40;97060.00;;;;5061671;28;20197;-75
2022/11/15 01:10:15;;;;;;;0.00;0.00;;;7.50;99.90;6.30;97068.00;;;;5056357;28;20217;-75
2022/11/15 01:13:02;;;;;;;0.10;0.10;;;7.40;99.90;6.30;97067.00;;;;5057133;28;20279;-75
2022/11/15 01:15:49;;;;;;;0.10;0.10;;;7.40;99.90;6.30;97062.00;;;;5052452;28;20205;-74
2022/11/15 01:18:36;;;;;;;0.10;0.10;;;7.40;99.90;6.30;97065.00;;;;5051923;28;20217;-74
2022/11/15 01:21:22;;;;;;;0.00;0.00;;;7.40;99.90;6.30;97061.00;;;;5048270;28;20617;-74
2022/11/15 01:24:13;;;;;;;0.10;0.10;;;7.40;99.90;6.40;97058.00;;;;5047212;28;20317;-74
2022/11/15 01:27:00;;;;;;;0.10;0.10;;;7.50;99.90;6.40;96943.00;;;;5053744;28;20252;-74
2022/11/15 01:29:47;;;;;;;0.10;0.10;;;7.50;99.90;6.40;97055.00;;;;5041456;28;20787;-74
2022/11/15 01:32:33;;;;;;;0.10;0.10;;;7.50;99.90;6.30;97054.00;;;;5061958;28;20283;-74
2022/11/15 01:35:20;;;;;;;0.10;0.10;;;7.40;99.90;6.30;97043.00;;;;5062943;28;20232;-74
2022/11/15 01:38:07;;;;;;;0.10;0.10;;;7.40;99.90;6.30;97058.00;;;;5050093;28;20214;-74
2022/11/15 01:40:55;;;;;;;0.10;0.10;;;7.40;99.90;6.30;97052.00;;;;5056706;28;20213;-74
2022/11/15 01:43:42;;;;;;;0.10;0.10;;;7.40;99.90;6.30;97054.00;;;;5054206;28;20288;-74
2022/11/15 01:46:34;;;;;;;0.10;0.10;;;7.40;99.90;6.30;97062.00;;;;5059205;28;20209;-75
2022/11/15 01:49:23;;;;;;;0.10;0.10;;;7.40;99.90;6.20;97053.00;;;;5052224;28;20755;-75
2022/11/15 01:52:14;;;;;;;0.08;0.08;;;7.40;99.90;6.20;97055.00;;;;5054892;28;20272;-74
2022/11/15 01:55:09;;;;;;;0.10;0.10;;;7.40;99.90;6.20;97040.00;;;;5050740;28;20205;-75
2022/11/15 01:58:02;;;;;;;0.00;0.00;;;7.30;99.90;6.20;97037.00;;;;5054423;28;20244;-75
2022/11/15 02:00:51;;;;;;;0.10;0.10;;;7.30;99.90;6.20;97048.00;;;;5053783;28;20248;-75
2022/11/15 02:03:45;;;;;;;0.10;0.10;;;7.30;99.90;6.20;97013.00;;;;5055033;28;20262;-75
2022/11/15 02:06:32;;;;;;;0.10;0.10;;;7.30;99.90;6.10;97036.00;;;;5055083;28;20738;-75
2022/11/15 02:09:19;;;;;;;0.10;0.10;;;7.20;99.90;6.10;97038.00;;;;5045481;28;20206;-75
2022/11/15 02:12:09;;;;;;;0.00;0.00;;;7.20;99.90;6.10;97018.00;;;;5055328;28;20253;-75
2022/11/15 02:14:57;;;;;;;0.05;0.05;;;7.20;99.90;6.00;97024.00;;;;5054929;28;20205;-75
2022/11/15 02:18:06;;;;;;;0.10;0.10;;;7.10;99.90;6.00;97047.00;;;;5050402;28;20260;-74
2022/11/15 02:21:12;;;;;;;0.10;0.10;;;7.10;99.90;6.00;97030.00;;;;5054586;28;20217;-75
2022/11/15 02:24:36;;;;;;;0.10;0.10;;;7.10;99.90;6.00;97028.00;;;;5049571;28;20240;-75
2022/11/15 02:28:00;;;;;;;0.10;0.10;;;7.10;99.90;5.00;97026.00;;;;5053749;28;20214;-75
2022/11/15 02:30:54;;;;;;;0.10;0.10;;;7.00;99.90;5.90;97010.00;;;;5047008;28;20272;-75
2022/11/15 02:33:54;;;;;;;0.10;0.10;;;7.00;99.90;5.80;97014.00;;;;5052854;28;20209;-75
2022/11/15 02:36:50;;;;;;;0.10;0.10;;;7.00;99.90;5.80;97007.00;;;;5050994;28;20281;-75
2022/11/15 02:39:47;;;;;;;0.10;0.10;;;6.90;99.90;5.70;96993.00;;;;5053597;28;20656;-74
2022/11/15 02:46:07;;;;;;;0.10;0.10;;;6.90;99.90;5.70;96980.00;;;;5054270;28;20348;-75
2022/11/15 02:48:54;;;;;;;0.10;0.10;;;6.90;99.90;5.70;96987.00;;;;5053090;28;20205;-74
2022/11/15 02:51:44;;;;;;;0.10;0.10;;;6.80;99.90;5.70;96980.00;;;;5047942;28;20237;-74
2022/11/15 02:54:33;;;;;;;0.10;0.10;;;6.80;99.90;5.70;96971.00;;;;5053951;28;20256;-74
2022/11/15 02:57:32;;;;;;;0.10;0.10;;;6.80;99.90;5.70;96974.00;;;;5053614;28;20200;-75
2022/11/15 03:00:21;;;;;;;0.10;0.10;;;6.90;99.90;5.70;96973.00;;;;5052512;28;20198;-75
2022/11/15 03:03:37;;;;;;;0.00;0.00;;;6.90;99.90;5.70;96980.00;;;;5048125;28;20743;-75
2022/11/15 03:06:38;;;;;;;0.10;0.10;;;6.90;99.90;5.70;96973.00;;;;5052696;28;20276;-75
2022/11/15 03:09:35;;;;;;;0.10;0.10;;;6.90;99.90;5.70;96960.00;;;;5050678;28;20260;-74
2022/11/15 03:12:31;;;;;;;0.10;0.10;;;6.90;99.90;5.70;96975.00;;;;5052979;28;20257;-75
2022/11/15 03:15:26;;;;;;;0.00;0.00;;;6.90;99.90;5.70;96972.00;;;;5048778;28;20279;-75
2022/11/15 03:18:22;;;;;;;0.10;0.10;;;6.90;99.90;5.70;96980.00;;;;5052788;28;20564;-76
2022/11/15 03:21:12;;;;;;;0.10;0.10;;;6.80;99.90;5.70;96978.00;;;;5052475;28;20226;-76
2022/11/15 03:24:05;;;;;;;0.10;0.10;;;6.90;99.90;5.60;96967.00;;;;5047368;28;20212;-75
2022/11/15 03:26:56;;;;;;;0.10;0.10;;;6.80;99.90;5.60;96971.00;;;;5052940;28;20862;-75
2022/11/15 03:29:52;;;;;;;0.10;0.10;;;6.80;99.90;5.60;96967.00;;;;5050919;28;20205;-75
2022/11/15 03:32:47;;;;;;;0.00;0.00;;;6.80;99.90;5.70;96971.00;;;;5048016;28;20229;-75
2022/11/15 03:35:41;;;;;;;0.10;0.10;;;6.90;99.90;5.70;96960.00;;;;5053226;28;20833;-75
2022/11/15 03:38:34;;;;;;;0.10;0.10;;;6.90;99.90;5.70;96976.00;;;;5052237;28;20205;-75
2022/11/15 03:41:28;;;;;;;0.10;0.10;;;6.90;99.90;5.70;96960.00;;;;5048219;28;20308;-74
2022/11/15 03:44:27;;;;;;;0.10;0.10;;;6.90;99.90;5.80;96948.00;;;;5051487;28;20268;-74
2022/11/15 03:47:21;;;;;;;0.10;0.10;;;6.90;99.90;5.80;96951.00;;;;5053361;28;20212;-75
2022/11/15 03:50:14;;;;;;;0.10;0.10;;;7.00;99.90;5.80;96961.00;;;;5052716;28;20213;-75
2022/11/15 03:53:03;;;;;;;0.10;0.10;;;7.00;99.90;5.80;96959.00;;;;5047227;28;20232;-75
2022/11/15 03:55:49;;;;;;;0.10;0.10;;;7.00;99.90;5.80;96945.00;;;;5045278;28;20239;-74
2022/11/15 03:58:36;;;;;;;0.10;0.10;;;7.00;99.90;5.90;96937.00;;;;5051760;28;20706;-75
2022/11/15 04:01:23;;;;;;;0.10;0.10;;;7.00;99.90;5.90;96935.00;;;;5049980;28;20241;-75
2022/11/15 04:04:10;;;;;;;0.10;0.10;;;7.00;99.90;5.80;96944.00;;;;5051896;28;20193;-75
2022/11/15 04:06:57;;;;;;;0.10;0.10;;;7.00;99.90;5.90;96943.00;;;;5051859;28;20538;-75
2022/11/15 04:10:03;;;;;;;0.10;0.10;;;7.00;99.90;5.90;96938.00;;;;5044162;28;20229;-75
2022/11/15 04:12:49;;;;;;;0.10;0.10;;;7.00;99.90;5.90;96939.00;;;;5044143;28;20236;-75
2022/11/15 04:15:37;;;;;;;0.10;0.10;;;7.00;99.90;5.90;96946.00;;;;5040129;28;20687;-75
2022/11/15 04:18:24;;;;;;;0.10;0.10;;;7.00;99.90;5.90;96942.00;;;;5039900;28;20213;-75
2022/11/15 04:24:15;;;;;;;0.10;0.10;;;7.00;99.90;5.80;96940.00;;;;5049458;28;20567;-75
2022/11/15 04:27:04;;;;;;;0.10;0.10;;;7.00;99.90;5.80;96946.00;;;;5064886;28;20201;-75
2022/11/15 04:29:51;;;;;;;0.10;0.10;;;6.90;99.90;5.70;96938.00;;;;5049261;28;20210;-75
2022/11/15 04:32:37;;;;;;;0.10;0.10;;;6.90;99.90;5.70;96929.00;;;;5052639;28;20256;-74
2022/11/15 04:35:24;;;;;;;0.00;0.00;;;6.80;99.90;5.70;96933.00;;;;5050094;28;20197;-75
2022/11/15 04:38:13;;;;;;;0.10;0.10;;;6.80;99.90;5.70;96923.00;;;;5049843;28;20222;-74
2022/11/15 04:41:00;;;;;;;0.10;0.10;;;6.80;99.90;5.60;96931.00;;;;5050944;28;20364;-75
2022/11/15 04:43:48;;;;;;;0.10;0.10;;;6.80;99.90;5.60;96910.00;;;;5052396;28;20236;-76
2022/11/15 04:46:35;;;;;;;0.10;0.10;;;6.80;99.90;5.60;96914.00;;;;5051973;28;20205;-76
2022/11/15 04:49:22;;;;;;;0.10;0.10;;;6.80;99.90;5.60;96922.00;;;;5044744;28;20201;-75
2022/11/15 04:52:09;;;;;;;0.10;0.10;;;6.80;99.90;5.70;96916.00;;;;5051465;28;20319;-75
2022/11/15 04:54:56;;;;;;;0.10;0.10;;;6.80;99.90;5.70;96928.00;;;;5050065;28;20260;-75
2022/11/15 04:57:42;;;;;;;0.10;0.10;;;6.80;99.90;5.70;96918.00;;;;5051160;28;20289;-75
2022/11/15 05:00:31;;;;;;;0.10;0.10;;;6.80;99.90;5.70;96927.00;;;;5042780;28;20282;-75
2022/11/15 05:06:22;;;;;;;0.10;0.10;;;6.90;99.90;5.70;96922.00;;;;5049463;28;20274;-75
2022/11/15 05:09:10;;;;;;;0.10;0.10;;;6.90;99.90;5.70;96916.00;;;;5044410;28;21050;-75
2022/11/15 05:11:56;;;;;;;0.10;0.10;;;6.90;99.90;5.70;96928.00;;;;5050857;28;20351;-75
2022/11/15 05:14:43;;;;;;;0.10;0.10;;;6.80;99.90;5.60;96915.00;;;;5051122;28;20299;-76
2022/11/15 05:17:31;;;;;;;0.10;0.10;;;6.80;99.90;5.70;96916.00;;;;5053572;28;20986;-76
2022/11/15 05:20:20;;;;;;;0.10;0.10;;;6.80;99.90;5.50;96867.00;;;;5053201;28;20209;-77
2022/11/15 05:23:09;;;;;;;0.10;0.10;;;6.80;99.90;5.60;96922.00;;;;5068377;28;20246;-76
2022/11/15 05:26:00;;;;;;;0.10;0.10;;;6.80;99.90;5.50;96915.00;;;;5065045;28;20226;-76
2022/11/15 05:28:55;;;;;;;0.10;0.10;;;6.70;99.90;5.60;96915.00;;;;5053639;28;20600;-76
2022/11/15 05:31:43;;;;;;;0.10;0.10;;;6.70;99.90;5.60;96911.00;;;;5057265;28;20757;-77
2022/11/15 05:34:31;;;;;;;0.10;0.10;;;6.70;99.90;5.60;96914.00;;;;5054687;28;20213;-77
2022/11/15 05:37:22;;;;;;;0.10;0.10;;;6.80;99.90;5.70;96915.00;;;;5055936;28;20629;-75
2022/11/15 05:43:13;;;;;;;0.10;0.10;;;6.80;99.90;5.60;96582.00;;;;5058098;28;20210;-77
2022/11/15 05:46:04;;;;;;;0.10;0.10;;;6.80;99.90;5.40;96722.00;;;;5057614;28;20209;-76
2022/11/15 05:48:55;;;;;;;0.10;0.10;;;6.70;99.90;5.60;96673.00;;;;5060067;28;20734;-76
2022/11/15 05:51:47;;;;;;;0.10;0.10;;;6.70;99.90;5.60;96791.00;;;;5052385;28;20335;-76
2022/11/15 05:54:37;;;;;;;0.10;0.10;;;6.80;99.90;5.60;96913.00;;;;5047129;28;20252;-76
2022/11/15 05:57:25;;;;;;;0.10;0.10;;;6.70;99.90;5.60;96935.00;;;;5053632;28;20275;-76
2022/11/15 06:00:13;;;;;;;0.10;0.10;;;6.70;99.90;5.60;96712.00;;;;5061067;28;20210;-76
2022/11/15 06:03:00;;;;;;;0.10;0.10;;;6.70;99.90;5.60;96449.00;;;;5056589;28;20295;-76
2022/11/15 06:05:47;;;;;;;0.10;0.10;;;6.70;99.90;5.60;96749.00;;;;5050462;28;20213;-77
2022/11/15 06:08:35;;;;;;;0.10;0.10;;;6.70;99.90;5.60;96743.00;;;;5053751;28;21278;-77
2022/11/15 06:11:22;;;;;;;0.10;0.10;;;6.70;99.90;5.60;96741.00;;;;5060432;28;20225;-76
2022/11/15 06:14:09;;;;;;;0.10;0.10;;;6.70;99.90;5.60;96756.00;;;;5057041;28;20245;-76
2022/11/15 06:16:55;;;;;;;0.10;0.10;;;6.70;99.90;5.60;96764.00;;;;5058078;28;20209;-76
2022/11/15 06:19:43;;;;;;;0.10;0.10;;;6.70;99.90;5.60;96930.00;;;;5053286;28;20280;-76
2022/11/15 06:22:30;;;;;;;0.10;0.10;;;6.80;99.90;5.60;96917.00;;;;5057377;28;20357;-76
2022/11/15 06:25:18;;;;;;;0.10;0.10;;;6.70;99.90;5.50;96918.00;;;;5061312;28;20275;-76
2022/11/15 06:28:05;;;;;;;0.10;0.10;;;6.70;99.90;5.50;96904.00;;;;5056287;28;20202;-75
2022/11/15 06:30:52;;;;;;;0.10;0.10;;;6.60;99.90;5.50;96912.00;;;;5051391;28;20721;-75
2022/11/15 06:33:39;;;;;;;0.10;0.10;;;6.60;99.90;5.50;96916.00;;;;5056422;28;20309;-75
2022/11/15 06:36:26;;;;;;;0.10;0.10;;;6.60;99.90;5.50;96701.00;;;;5050354;28;20249;-75
2022/11/15 06:39:13;;;;;;;0.10;0.10;;;6.70;99.90;5.50;96702.00;;;;5046108;28;20321;-75
2022/11/15 06:42:01;;;;;;;0.10;0.10;;;6.70;99.90;5.50;96702.00;;;;5046278;28;20229;-75
2022/11/15 06:44:48;;;;;;;0.10;0.10;;;6.60;99.90;5.50;96715.00;;;;5051871;28;20751;-76
2022/11/15 06:47:35;;;;;;;0.10;0.10;;;6.70;99.90;5.50;96706.00;;;;5059044;28;20249;-76
2022/11/15 06:50:22;;;;;;;0.10;0.10;;;6.60;99.90;5.40;96723.00;;;;5059941;28;20217;-75
2022/11/15 06:53:09;;;;;;;0.10;0.10;;;6.70;99.90;5.50;96753.00;;;;5057448;28;20225;-76
2022/11/15 06:56:00;;;;;;;0.10;0.10;;;6.70;99.90;5.60;96909.00;;;;5056450;28;20209;-75
2022/11/15 06:58:48;;;;;;;0.10;0.10;;;6.70;99.90;5.60;96906.00;;;;5057523;28;20232;-76
2022/11/15 07:01:35;;;;;;;0.10;0.10;;;6.80;99.90;5.60;96891.00;;;;5067864;23;20238;-76
2022/11/15 07:04:22;;;;;;;0.10;0.10;;;6.70;99.90;5.50;96886.00;;;;5023389;28;20206;-76
2022/11/15 07:07:09;;;;;;;0.10;0.10;;;6.70;99.90;5.60;96883.00;;;;5024833;28;20209;-76
2022/11/15 07:09:56;;;;;;;0.10;0.10;;;6.70;99.90;5.60;96894.00;;;;5017566;28;20221;-76
2022/11/15 07:12:42;;;;;;;0.10;0.10;;;6.70;99.90;5.60;96893.00;;;;5010598;28;20223;-76
2022/11/15 07:15:30;;;;;;;0.10;0.10;;;6.70;99.90;5.60;96887.00;;;;5003345;28;20214;-76
2022/11/15 07:18:17;;;;;;;0.10;0.10;;;6.70;99.90;5.60;96900.00;;;;5008539;28;20207;-76
2022/11/15 07:21:06;;;;;;;0.10;0.10;;;6.70;99.90;5.60;96901.00;;;;4993527;28;20199;-75
2022/11/15 07:23:53;;;;;;;0.00;0.00;;;6.80;99.90;5.70;96883.00;;;;4994219;28;20238;-76
2022/11/15 07:26:40;;;;;;;0.10;0.10;;;6.80;99.90;5.70;96881.00;;;;5006386;28;20342;-76
2022/11/15 07:29:26;;;;;;;0.10;0.10;;;6.90;99.90;5.80;96877.00;;;;5005017;28;20202;-76
2022/11/15 07:32:15;;;;;;;0.10;0.10;;;6.90;99.90;5.80;96891.00;;;;5002884;28;20223;-76
2022/11/15 07:35:01;;;;;;;0.10;0.10;;;7.00;99.90;5.90;96886.00;;;;5000687;28;20216;-76
2022/11/15 07:37:55;;;;;;;0.10;0.10;;;7.00;99.90;5.90;96883.00;;;;4993249;28;20314;-76
2022/11/15 07:40:42;;;;;;;0.10;0.10;;;7.10;99.90;6.00;96876.00;;;;5005950;28;20278;-75
2022/11/15 07:43:32;;;;;;;0.10;0.10;;;7.10;99.90;6.00;96880.00;;;;5005125;28;20222;-75
2022/11/15 07:46:19;;;;;;;0.10;0.10;;;7.20;99.90;6.10;96885.00;;;;5004504;28;20250;-76
2022/11/15 07:49:07;;;;;;;0.10;0.10;;;7.20;99.90;6.20;96888.00;;;;5000933;28;20207;-76
2022/11/15 07:51:54;;;;;;;0.10;0.10;;;7.30;99.90;6.20;96884.00;;;;4992793;28;20281;-76
2022/11/15 07:54:40;;;;;;;0.10;0.10;;;7.30;99.90;6.20;96892.00;;;;4990040;28;20285;-76
2022/11/15 07:57:27;;;;;;;0.10;0.10;;;7.30;99.90;6.30;96889.00;;;;5002596;28;20203;-76
2022/11/15 08:00:16;;;;;;;0.10;0.10;;;7.40;99.90;6.40;96882.00;;;;5004220;28;20215;-76
2022/11/15 08:03:05;;;;;;;0.10;0.10;;;7.50;99.90;6.20;96880.00;;;;5004631;28;20241;-76
2022/11/15 08:05:53;;;;;;;0.10;0.10;;;7.50;99.90;6.50;96881.00;;;;5000707;28;20216;-76
2022/11/15 08:08:40;;;;;;;0.10;0.10;;;7.60;99.90;6.50;96884.00;;;;4989777;28;20677;-76
2022/11/15 08:11:27;;;;;;;0.10;0.10;;;7.60;99.90;6.60;96871.00;;;;5000829;28;20222;-76
2022/11/15 08:14:14;;;;;;;0.10;0.10;;;7.70;99.90;6.60;96880.00;;;;5002997;28;20267;-76
2022/11/15 08:17:00;;;;;;;0.10;0.10;;;7.70;99.90;6.70;96875.00;;;;4996255;28;20226;-76
2022/11/15 08:19:47;;;;;;;0.10;0.10;;;7.80;99.90;6.90;96886.00;;;;4998902;28;20682;-75
2022/11/15 08:22:36;;;;;;;0.10;0.10;;;7.90;99.90;7.00;96881.00;;;;5000140;28;20231;-76
2022/11/15 08:25:25;;;;;;;0.10;0.10;;;8.00;99.90;7.10;96890.00;;;;5006530;28;20750;-76
2022/11/15 08:28:12;;;;;;;0.10;0.10;;;8.10;99.90;7.10;96872.00;;;;4994040;28;20207;-76
2022/11/15 08:30:59;;;;;;;0.10;0.10;;;8.20;99.90;7.20;96875.00;;;;5003036;28;20226;-76
2022/11/15 08:33:46;;;;;;;0.10;0.10;;;8.30;99.90;7.30;96873.00;;;;5003150;28;20237;-76
2022/11/15 08:36:33;;;;;;;0.10;0.10;;;8.40;99.90;7.40;96865.00;;;;5004647;28;20214;-76
2022/11/15 08:39:35;;;;;;;0.10;0.10;;;8.40;99.90;7.50;96865.00;;;;5006480;28;20666;-76
2022/11/15 08:42:21;;;;;;;0.10;0.10;;;8.50;99.90;7.60;96862.00;;;;5004645;28;20273;-76
2022/11/15 08:45:10;;;;;;;0.10;0.10;;;8.60;99.90;7.70;96867.00;;;;5004807;28;20262;-76
2022/11/15 08:47:58;;;;;;;0.00;0.00;;;8.70;99.90;7.70;96809.00;;;;4997770;28;20218;-76
2022/11/15 08:50:44;;;;;;;0.10;0.10;;;8.80;99.90;7.90;96852.00;;;;4986093;28;20224;-76
2022/11/15 08:53:31;;;;;;;0.10;0.10;;;8.90;99.90;7.90;96852.00;;;;5004013;28;20222;-76
2022/11/15 08:56:19;;;;;;;0.10;0.10;;;9.00;99.90;8.00;96842.00;;;;5007999;28;20645;-75
2022/11/15 08:59:06;;;;;;;0.10;0.10;;;9.10;99.90;8.00;96847.00;;;;4999609;28;20207;-75
2022/11/15 09:01:53;;;;;;;0.00;0.00;;;9.10;99.90;8.20;96843.00;;;;5000380;28;20278;-75
2022/11/15 09:04:42;;;;;;;0.03;0.03;;;9.20;99.90;8.30;96845.00;;;;5006073;28;20572;-74
2022/11/15 09:07:29;;;;;;;0.10;0.10;;;9.30;99.90;8.40;96844.00;;;;5000394;28;20263;-75
2022/11/15 09:10:17;;;;;;;0.10;0.10;;;9.40;99.90;8.40;96840.00;;;;5002890;28;20291;-75
2022/11/15 09:13:05;;;;;;;0.10;0.10;;;9.50;99.90;8.50;96824.00;;;;5010767;28;20231;-75
2022/11/15 09:15:51;;;;;;;0.10;0.10;;;9.50;99.90;8.60;96835.00;;;;5005529;28;20203;-75
2022/11/15 09:18:38;;;;;;;0.10;0.10;;;9.60;99.90;8.70;96835.00;;;;5006955;28;20211;-75
2022/11/15 09:21:25;;;;;;;0.10;0.10;;;9.70;99.90;8.80;96829.00;;;;4991275;28;20223;-75
2022/11/15 09:24:12;;;;;;;0.10;0.10;;;9.80;99.90;8.90;96830.00;;;;5001802;28;20235;-75
2022/11/15 09:26:58;;;;;;;0.10;0.10;;;9.80;99.90;8.90;96835.00;;;;4988485;28;20203;-75
2022/11/15 09:29:46;;;;;;;0.10;0.10;;;9.90;99.90;8.90;96822.00;;;;5000728;28;20214;-75
2022/11/15 09:32:33;;;;;;;0.00;0.00;;;9.90;99.90;9.00;96837.00;;;;4996006;28;20227;-75
2022/11/15 09:35:25;;;;;;;0.10;0.10;;;10.00;99.90;9.10;96837.00;;;;4988563;28;20674;-75
2022/11/15 09:38:12;;;;;;;0.10;0.10;;;10.10;99.90;9.30;96829.00;;;;4996265;28;20258;-75
2022/11/15 09:41:34;;;;;;;0.10;0.10;;;10.20;99.90;9.30;96823.00;;;;4994808;28;20212;-74
2022/11/15 09:44:41;;;;;;;0.10;0.10;;;10.30;99.90;9.40;96823.00;;;;5004622;28;20218;-75
2022/11/15 09:48:03;;;;;;;0.10;0.10;;;10.40;99.90;9.60;96834.00;;;;5001257;28;20203;-74
2022/11/15 09:51:16;;;;;;;0.10;0.10;;;10.50;99.90;9.70;96819.00;;;;4989080;28;20208;-75
2022/11/15 09:53:55;;;;;;;0.00;0.00;;;10.60;99.90;9.80;96819.00;;;;5001271;28;20246;-74
2022/11/15 09:56:45;;;;;;;0.10;0.10;;;10.70;99.90;9.90;96805.00;;;;4997006;28;20197;-76
2022/11/15 09:59:46;;;;;;;0.00;0.00;;;10.80;99.90;9.90;96797.00;;;;5003484;28;20671;-74
2022/11/15 10:02:39;;;;;;;0.05;0.05;;;10.90;99.90;10.00;96808.00;;;;5002485;28;20228;-75
2022/11/15 10:05:13;;;;;;;0.10;0.10;;;11.00;99.90;10.10;96792.00;;;;5019397;28;20291;-75
2022/11/15 10:07:51;;;;;;;0.10;0.10;;;11.00;99.90;10.10;96773.00;;;;5008213;28;20206;-75
2022/11/15 10:10:29;;;;;;;0.10;0.10;;;11.10;99.90;10.20;96773.00;;;;5010248;28;20199;-75
2022/11/15 10:13:00;;;;;;;0.10;0.10;;;11.10;99.90;10.30;96797.00;;;;5005361;28;20223;-74
2022/11/15 10:15:28;;;;;;;0.10;0.10;;;11.20;99.90;10.40;96749.00;;;;5007540;28;20223;-75
2022/11/15 10:18:20;;;;;;;0.10;0.10;;;11.30;99.90;10.40;96784.00;;;;5005166;28;20655;-76
2022/11/15 10:20:51;;;;;;;0.00;0.00;;;11.30;99.90;10.50;96792.00;;;;4997556;28;20212;-75
2022/11/15 10:23:23;;;;;;;0.10;0.10;;;11.40;99.90;10.60;96781.00;;;;4990639;28;20751;-74
2022/11/15 10:25:55;;;;;;;0.00;0.00;;;11.50;99.90;10.70;96771.00;;;;4990791;28;20200;-75
2022/11/15 10:28:28;;;;;;;0.10;0.10;;;11.60;99.90;10.70;96782.00;;;;5012769;28;20204;-76
2022/11/15 10:31:00;;;;;;;0.10;0.10;;;11.60;99.90;10.70;96776.00;;;;5009600;28;20228;-75
2022/11/15 10:33:35;;;;;;;0.10;0.10;;;11.70;99.90;10.80;96784.00;;;;4998305;28;20223;-74
2022/11/15 10:36:24;;;;;;;0.10;0.10;;;11.80;99.90;10.90;96771.00;;;;4993673;28;20240;-74
2022/11/15 10:38:59;;;;;;;0.10;0.10;;;11.80;99.90;10.90;96760.00;;;;5001266;28;20211;-74
2022/11/15 10:41:38;;;;;;;0.00;0.00;;;11.90;99.90;11.00;96739.00;;;;5003153;28;20273;-74
2022/11/15 10:44:25;;;;;;;0.10;0.10;;;11.90;99.90;11.10;96768.00;;;;5005387;28;20195;-74
2022/11/15 10:47:23;;;;;;;0.10;0.10;;;12.00;99.90;11.20;96755.00;;;;4999682;28;20215;-74
2022/11/15 10:49:59;;;;;;;0.10;0.10;;;12.10;99.90;11.30;96705.00;;;;5016203;28;20214;-74
2022/11/15 10:52:30;;;;;;;0.10;0.10;;;12.20;99.90;11.30;96754.00;;;;5000882;28;20231;-74
2022/11/15 10:55:05;;;;;;;0.10;0.10;;;12.20;99.90;11.40;96727.00;;;;4996322;28;20224;-74
2022/11/15 10:57:38;;;;;;;0.10;0.10;;;12.30;99.90;11.40;96751.00;;;;5024558;28;20215;-74
2022/11/15 11:00:28;;;;;;;0.10;0.10;;;12.30;99.90;11.50;96749.00;;;;5008058;28;20203;-74
2022/11/15 11:03:02;;;;;;;0.10;0.10;;;12.30;99.90;11.50;96754.00;;;;5004542;28;20656;-76
2022/11/15 11:05:36;;;;;;;0.10;0.10;;;12.40;99.90;11.40;96743.00;;;;5012182;28;20208;-74
2022/11/15 11:08:24;;;;;;;0.10;0.10;;;12.40;99.90;11.70;96736.00;;;;5001205;28;20200;-74
2022/11/15 11:10:57;;;;;;;0.10;0.10;;;12.50;99.90;11.80;96726.00;;;;5004183;28;20193;-74
2022/11/15 11:13:33;;;;;;;0.10;0.10;;;12.70;99.90;11.90;96740.00;;;;5007585;28;20250;-73
2022/11/15 11:16:34;;;;;;;0.00;0.00;;;12.80;99.90;12.00;96725.00;;;;5002889;28;20220;-74
2022/11/15 11:19:25;;;;;;;0.10;0.10;;;12.90;99.90;12.20;96734.00;;;;5013374;28;20208;-74
2022/11/15 11:22:05;;;;;;;0.10;0.10;;;13.00;99.90;12.20;96697.00;;;;4993319;28;20231;-74
2022/11/15 11:24:41;;;;;;;0.03;0.03;;;13.10;99.90;12.30;96657.00;;;;4996234;28;20222;-74
2022/11/15 11:27:27;;;;;;;0.08;0.08;;;13.10;99.90;12.50;96674.00;;;;5011432;28;20206;-74
2022/11/15 11:30:08;;;;;;;0.10;0.10;;;13.30;99.90;12.40;96717.00;;;;5022789;28;20294;-74
2022/11/15 11:32:55;;;;;;;0.00;0.00;;;13.40;99.90;12.70;96716.00;;;;5001317;28;20223;-74
2022/11/15 11:35:31;;;;;;;0.10;0.10;;;13.50;99.90;12.90;96695.00;;;;5005636;28;20215;-74
2022/11/15 11:38:30;;;;;;;0.00;0.00;;;13.60;99.90;14.90;96697.00;;;;5008494;28;20271;-74
2022/11/15 11:41:16;;;;;;;0.10;0.10;;;14.10;99.90;17.80;96676.00;;;;4996007;28;20212;-74
2022/11/15 11:44:02;;;;;;;0.00;0.00;;;15.40;99.90;19.30;96720.00;;;;4999587;28;20199;-75
2022/11/15 11:46:50;;;;;;;0.00;0.00;;;16.50;99.90;19.60;96711.00;;;;5012175;28;20223;-74
2022/11/15 11:49:28;;;;;;;0.00;0.00;;;17.30;99.90;19.20;96711.00;;;;5001289;28;20275;-73
2022/11/15 11:52:06;;;;;;;0.00;0.00;;;17.60;99.90;19.30;96698.00;;;;5015320;28;20221;-74
2022/11/15 11:54:47;;;;;;;0.00;0.00;;;18.00;99.90;19.30;96699.00;;;;5018152;28;20205;-74
2022/11/15 11:57:34;;;;;;;0.00;0.00;;;18.40;99.90;19.10;96705.00;;;;5006539;28;20200;-74
2022/11/15 12:00:16;;;;;;;0.00;0.00;;;18.50;99.90;19.10;96692.00;;;;5000925;28;20192;-74
2022/11/15 12:02:53;;;;;;;0.00;0.00;;;18.70;99.90;19.50;96690.00;;;;5014567;28;20235;-75
2022/11/15 12:05:32;;;;;;;0.00;0.00;;;19.20;99.90;20.90;96693.00;;;;5028643;28;20269;-74
2022/11/15 12:08:10;;;;;;;0.00;0.00;;;20.80;99.90;22.00;96576.00;;;;5009926;28;20195;-74
2022/11/15 12:10:45;;;;;;;0.00;0.00;;;22.10;99.80;21.70;96701.00;;;;5007473;28;20196;-74
2022/11/15 12:13:20;;;;;;;0.00;0.00;;;22.00;98.90;21.60;96594.00;;;;5012414;28;20241;-74
2022/11/15 12:15:57;;;;;;;0.10;0.10;;;21.70;98.40;21.20;96607.00;;;;4999638;28;20219;-74
2022/11/15 12:18:26;;;;;;;0.00;0.00;;;21.60;98.80;21.80;96680.00;;;;5011588;28;20191;-74
2022/11/15 12:20:59;;;;;;;0.00;0.00;;;22.40;98.40;21.70;96685.00;;;;5004636;28;20201;-75
2022/11/15 12:23:33;;;;;;;0.00;0.00;;;22.10;98.00;19.60;96699.00;;;;4996177;28;20691;-74
2022/11/15 12:26:09;;;;;;;0.00;0.00;;;20.30;99.40;19.90;96679.00;;;;4998209;28;20215;-74
2022/11/15 12:28:44;;;;;;;0.00;0.00;;;20.70;99.80;19.70;96667.00;;;;5005349;28;20269;-75
2022/11/15 12:31:40;;;;;;;0.00;0.00;;;20.30;99.60;19.70;96657.00;;;;5017645;28;20842;-75
2022/11/15 12:34:44;;;;;;;0.00;0.00;;;20.30;99.90;20.00;96689.00;;;;5023573;28;20666;-75
2022/11/15 12:37:48;;;;;;;0.00;0.00;;;20.70;99.50;20.40;96679.00;;;;4996505;28;20220;-75
2022/11/15 12:40:36;;;;;;;0.00;0.00;;;20.90;99.10;19.50;96676.00;;;;5000104;28;20200;-75
2022/11/15 12:43:40;;;;;;;0.00;0.00;;;20.20;99.80;18.80;96668.00;;;;5020553;28;20242;-75
2022/11/15 12:46:20;;;;;;;0.00;0.00;;;19.80;99.90;19.20;96671.00;;;;5001686;28;20199;-75
2022/11/15 12:48:54;;;;;;;0.00;0.00;;;19.90;99.90;19.30;96658.00;;;;5002981;28;20200;-75